Time;durP1;ratioP1;P1;durP2;ratioP2;P2;SDS_P1;SDS_P2;PMS_P1;PMS_P2;Temp;Humidity;BMP_temperature;BMP_pressure;BME280_temperature;BME280_humidity;BME280_pressure;Samples;Min_cycle;Max_cycle;Signal;HPM_P1;HPM_P2
2024/01/27 00:01:14;;;;;;;33.25;6.05;;;11.90;99.90;;;;;;5054806;28;20043;-49
2024/01/27 00:03:39;;;;;;;34.60;6.20;;;11.90;99.90;;;;;;5071477;28;20037;-50
2024/01/27 00:06:05;;;;;;;36.80;7.13;;;11.90;99.90;;;;;;5071538;28;20358;-50
2024/01/27 00:08:31;;;;;;;39.83;6.95;;;11.90;99.90;;;;;;5089457;28;20047;-49
2024/01/27 00:10:56;;;;;;;29.85;6.55;;;11.90;99.90;;;;;;5089275;28;20051;-50
2024/01/27 00:13:22;;;;;;;36.47;7.32;;;11.80;99.90;;;;;;5089139;28;20445;-49
2024/01/27 00:15:47;;;;;;;37.70;6.50;;;11.80;99.90;;;;;;5054693;28;20036;-49
2024/01/27 00:18:15;;;;;;;23.48;5.90;;;11.70;99.90;;;;;;5071180;28;20032;-49
2024/01/27 00:20:40;;;;;;;31.77;6.07;;;11.70;99.90;;;;;;5089068;28;20028;-50
2024/01/27 00:23:06;;;;;;;27.17;5.90;;;11.70;99.90;;;;;;5071047;28;20032;-49
2024/01/27 00:25:32;;;;;;;30.00;6.38;;;11.70;99.90;;;;;;5053071;28;20039;-49
2024/01/27 00:27:57;;;;;;;29.10;5.60;;;11.70;99.90;;;;;;5088908;28;20020;-49
2024/01/27 00:30:23;;;;;;;27.60;6.32;;;11.70;99.90;;;;;;5054383;28;20094;-50
2024/01/27 00:32:48;;;;;;;25.45;6.50;;;11.60;99.90;;;;;;5054283;28;20035;-49
2024/01/27 00:35:16;;;;;;;20.73;5.50;;;11.60;99.90;;;;;;5070651;28;20024;-50
2024/01/27 00:37:42;;;;;;;25.27;5.47;;;11.60;99.90;;;;;;5088844;28;20052;-49
2024/01/27 00:40:09;;;;;;;23.80;5.28;;;11.60;99.90;;;;;;5088680;28;20032;-50
2024/01/27 00:42:35;;;;;;;27.25;5.80;;;11.50;99.90;;;;;;5070620;28;20095;-50
2024/01/27 00:45:00;;;;;;;25.63;5.85;;;11.50;99.90;;;;;;5088654;28;20025;-49
2024/01/27 00:47:26;;;;;;;27.88;6.00;;;11.50;99.90;;;;;;5088576;28;20032;-50
2024/01/27 00:49:54;;;;;;;19.75;4.85;;;11.50;99.90;;;;;;5070746;28;20024;-50
2024/01/27 00:52:19;;;;;;;27.27;4.40;;;11.50;99.90;;;;;;5070486;28;20025;-50
2024/01/27 00:54:45;;;;;;;25.02;4.70;;;11.40;99.90;;;;;;5053815;28;20064;-50
2024/01/27 00:57:10;;;;;;;30.02;6.68;;;11.40;99.90;;;;;;5070584;28;20043;-49
2024/01/27 00:59:36;;;;;;;18.27;5.15;;;11.40;99.90;;;;;;5053934;28;20033;-49
2024/01/27 01:02:02;;;;;;;21.98;5.82;;;11.40;99.90;;;;;;5070598;28;20028;-49
2024/01/27 01:04:27;;;;;;;19.52;4.70;;;11.30;99.90;;;;;;5088391;28;20028;-50
2024/01/27 01:06:53;;;;;;;24.20;5.18;;;11.30;99.90;;;;;;5070247;28;20029;-49
2024/01/27 01:09:18;;;;;;;24.88;5.03;;;11.30;99.90;;;;;;5053744;28;20476;-49
2024/01/27 01:11:44;;;;;;;16.80;4.32;;;11.30;99.90;;;;;;5088419;28;20029;-50
2024/01/27 01:14:10;;;;;;;19.60;4.85;;;11.30;99.90;;;;;;5088270;28;20042;-49
2024/01/27 01:16:35;;;;;;;28.40;5.57;;;11.30;99.90;;;;;;5070196;28;20035;-50
2024/01/27 01:19:01;;;;;;;15.82;4.70;;;11.20;99.90;;;;;;5087999;28;20039;-49
2024/01/27 01:21:26;;;;;;;24.10;5.15;;;11.20;99.90;;;;;;5088009;28;20122;-49
2024/01/27 01:23:52;;;;;;;14.95;4.43;;;11.20;99.90;;;;;;5069810;28;20100;-50
2024/01/27 01:26:18;;;;;;;21.83;5.05;;;11.20;99.90;;;;;;5087835;28;20024;-49
2024/01/27 01:28:43;;;;;;;17.92;4.45;;;11.20;99.90;;;;;;5053387;28;20021;-50
2024/01/27 01:31:09;;;;;;;24.92;5.13;;;11.20;99.90;;;;;;5087839;28;20025;-50
2024/01/27 01:33:34;;;;;;;21.02;4.65;;;11.10;99.90;;;;;;5053286;28;20028;-49
2024/01/27 01:36:00;;;;;;;19.75;4.20;;;11.10;99.90;;;;;;5087159;28;20108;-49
2024/01/27 01:38:25;;;;;;;23.33;4.43;;;11.10;99.90;;;;;;5069827;28;20035;-50
2024/01/27 01:40:51;;;;;;;18.02;4.18;;;11.10;99.90;;;;;;5052975;28;20096;-50
2024/01/27 01:43:16;;;;;;;12.00;4.28;;;11.10;99.90;;;;;;5069696;28;20099;-49
2024/01/27 01:45:42;;;;;;;21.77;4.40;;;11.10;99.90;;;;;;5069410;28;20097;-50
2024/01/27 01:48:08;;;;;;;20.42;3.83;;;11.10;99.90;;;;;;5087715;28;20029;-49
2024/01/27 01:50:34;;;;;;;21.67;4.32;;;11.00;99.90;;;;;;5069565;28;20511;-50
2024/01/27 01:53:00;;;;;;;18.20;3.83;;;11.00;99.90;;;;;;5052785;28;20024;-50
2024/01/27 01:55:25;;;;;;;18.27;3.92;;;11.00;99.90;;;;;;5052750;28;20037;-50
2024/01/27 01:57:51;;;;;;;20.60;3.83;;;11.00;99.90;;;;;;5052558;28;20036;-50
2024/01/27 02:00:17;;;;;;;16.10;3.95;;;11.00;99.90;;;;;;5069384;28;20050;-50
2024/01/27 02:02:45;;;;;;;20.83;4.22;;;11.00;99.90;;;;;;5087168;28;20025;-50
2024/01/27 02:05:12;;;;;;;18.90;4.15;;;10.90;99.90;;;;;;5069296;28;20016;-50
2024/01/27 02:07:38;;;;;;;19.42;4.18;;;10.90;99.90;;;;;;5087073;28;20041;-49
2024/01/27 02:10:04;;;;;;;15.38;3.95;;;10.90;99.90;;;;;;5069021;28;20023;-50
2024/01/27 02:12:29;;;;;;;16.60;4.10;;;10.90;99.90;;;;;;5069049;28;20021;-49
2024/01/27 02:14:55;;;;;;;13.18;3.50;;;10.90;99.90;;;;;;5086776;28;20047;-50
2024/01/27 02:17:20;;;;;;;16.77;3.65;;;10.80;99.90;;;;;;5069031;28;20037;-49
2024/01/27 02:19:46;;;;;;;13.45;4.25;;;10.80;99.90;;;;;;5068851;28;20473;-50
2024/01/27 02:22:11;;;;;;;12.98;3.55;;;10.80;99.90;;;;;;5086825;28;20060;-50
2024/01/27 02:24:37;;;;;;;13.25;3.67;;;10.80;99.90;;;;;;5086739;28;20020;-49
2024/01/27 02:27:03;;;;;;;19.25;4.57;;;10.80;99.90;;;;;;5068889;28;20503;-49
2024/01/27 02:29:28;;;;;;;14.63;3.55;;;10.80;99.90;;;;;;5086711;28;20021;-49
2024/01/27 02:31:55;;;;;;;17.83;3.70;;;10.80;99.90;;;;;;5068787;28;20041;-49
2024/01/27 02:34:20;;;;;;;18.08;3.55;;;10.80;99.90;;;;;;5051909;28;20073;-49
2024/01/27 02:36:46;;;;;;;14.55;3.40;;;10.80;99.90;;;;;;5086448;28;20060;-49
2024/01/27 02:39:11;;;;;;;20.88;3.38;;;10.70;99.90;;;;;;5086814;28;20031;-49
2024/01/27 02:41:39;;;;;;;13.18;3.80;;;10.70;99.90;;;;;;5086832;28;20028;-50
2024/01/27 02:44:05;;;;;;;14.93;3.45;;;10.70;99.90;;;;;;5068827;28;20089;-50
2024/01/27 02:46:31;;;;;;;13.25;4.00;;;10.70;99.90;;;;;;5068449;28;20033;-49
2024/01/27 02:48:56;;;;;;;9.90;3.50;;;10.70;99.90;;;;;;5067915;28;20077;-50
2024/01/27 02:51:22;;;;;;;14.35;3.53;;;10.60;99.90;;;;;;5068576;28;20381;-49
2024/01/27 02:53:47;;;;;;;17.98;3.53;;;10.60;99.90;;;;;;5068577;28;20125;-50
2024/01/27 02:56:13;;;;;;;11.30;3.75;;;10.60;99.90;;;;;;5068490;28;20043;-49
2024/01/27 02:58:40;;;;;;;9.93;2.80;;;10.60;99.90;;;;;;5086375;28;20032;-50
2024/01/27 03:01:06;;;;;;;9.55;3.45;;;10.60;99.90;;;;;;5068665;28;20040;-50
2024/01/27 03:03:31;;;;;;;11.43;3.45;;;10.50;99.90;;;;;;5068228;28;20085;-49
2024/01/27 03:05:57;;;;;;;14.27;3.53;;;10.60;99.90;;;;;;5084860;28;20037;-49
2024/01/27 03:08:22;;;;;;;13.43;3.50;;;10.50;99.90;;;;;;5068364;28;20582;-49
2024/01/27 03:10:48;;;;;;;15.68;3.63;;;10.50;99.90;;;;;;5086367;28;20380;-49
2024/01/27 03:13:13;;;;;;;15.27;2.92;;;10.50;99.90;;;;;;5086442;28;20029;-50
2024/01/27 03:15:39;;;;;;;12.75;3.10;;;10.50;99.90;;;;;;5068388;28;20036;-49
2024/01/27 03:18:05;;;;;;;10.82;3.22;;;10.50;99.90;;;;;;5068993;28;20024;-50
2024/01/27 03:20:33;;;;;;;9.02;2.80;;;10.50;99.90;;;;;;5068578;28;20036;-49
2024/01/27 03:22:58;;;;;;;9.52;3.75;;;10.50;99.90;;;;;;5085948;28;20025;-50
2024/01/27 03:25:25;;;;;;;10.02;2.83;;;10.50;99.90;;;;;;5086171;28;20040;-49
2024/01/27 03:27:51;;;;;;;11.73;3.50;;;10.40;99.90;;;;;;5067961;28;20021;-50
2024/01/27 03:30:17;;;;;;;6.55;3.10;;;10.50;99.90;;;;;;5086029;28;20043;-49
2024/01/27 03:32:42;;;;;;;10.45;2.65;;;10.50;99.90;;;;;;5068300;28;20480;-49
2024/01/27 03:35:08;;;;;;;12.48;2.92;;;10.40;99.90;;;;;;5067913;28;20025;-49
2024/01/27 03:37:34;;;;;;;9.68;2.65;;;10.40;99.90;;;;;;5068212;28;20143;-49
2024/01/27 03:40:00;;;;;;;9.35;2.90;;;10.40;99.90;;;;;;5085844;28;20485;-50
2024/01/27 03:42:26;;;;;;;8.25;2.88;;;10.40;99.90;;;;;;5086074;28;20048;-49
2024/01/27 03:44:52;;;;;;;5.53;2.55;;;10.40;99.90;;;;;;5067996;28;20025;-50
2024/01/27 03:47:17;;;;;;;11.75;2.88;;;10.40;99.90;;;;;;5051279;28;20025;-50
2024/01/27 03:49:43;;;;;;;10.88;2.88;;;10.30;99.90;;;;;;5085862;28;20029;-49
2024/01/27 03:52:08;;;;;;;12.10;3.17;;;10.30;99.90;;;;;;5086009;28;20038;-49
2024/01/27 03:54:34;;;;;;;9.88;2.53;;;10.40;99.90;;;;;;5067760;28;20025;-50
2024/01/27 03:56:59;;;;;;;8.95;2.55;;;10.30;99.90;;;;;;5051126;28;20031;-50
2024/01/27 03:59:25;;;;;;;11.13;2.50;;;10.30;99.90;;;;;;5086421;28;20024;-49
2024/01/27 04:01:51;;;;;;;9.65;2.60;;;10.30;99.90;;;;;;5071609;28;20028;-49
2024/01/27 04:04:16;;;;;;;13.85;2.90;;;10.30;99.90;;;;;;5089087;28;20085;-49
2024/01/27 04:06:42;;;;;;;7.60;2.55;;;10.30;99.90;;;;;;5071469;28;20052;-49
2024/01/27 04:09:08;;;;;;;11.82;2.72;;;10.30;99.90;;;;;;5089187;28;20032;-49
2024/01/27 04:11:34;;;;;;;5.97;2.15;;;10.20;99.90;;;;;;5072087;28;20052;-50
2024/01/27 04:14:00;;;;;;;8.68;2.45;;;10.20;99.90;;;;;;5071739;28;20039;-50
2024/01/27 04:16:25;;;;;;;5.32;2.28;;;10.20;99.90;;;;;;5071184;28;20073;-50
2024/01/27 04:18:51;;;;;;;7.72;2.70;;;10.20;99.90;;;;;;5070953;28;20029;-50
2024/01/27 04:21:16;;;;;;;9.38;2.78;;;10.20;99.90;;;;;;5089240;28;20039;-49
2024/01/27 04:23:42;;;;;;;9.23;2.30;;;10.20;99.90;;;;;;5071024;28;20037;-49
2024/01/27 04:26:09;;;;;;;9.75;2.50;;;10.20;99.90;;;;;;5088886;28;20020;-49
2024/01/27 04:28:34;;;;;;;9.23;2.78;;;10.20;99.90;;;;;;5071355;28;20099;-50
2024/01/27 04:31:00;;;;;;;8.77;2.65;;;10.10;99.90;;;;;;5070992;28;20032;-49
2024/01/27 04:33:25;;;;;;;7.57;2.70;;;10.10;99.90;;;;;;5088698;28;20047;-49
2024/01/27 04:35:51;;;;;;;10.15;2.75;;;10.10;99.90;;;;;;5070779;28;20119;-49
2024/01/27 04:38:17;;;;;;;7.65;2.42;;;10.10;99.90;;;;;;5088920;28;20028;-49
2024/01/27 04:40:42;;;;;;;7.43;2.65;;;10.10;99.90;;;;;;5070783;28;20445;-49
2024/01/27 04:43:08;;;;;;;6.80;2.45;;;10.00;99.90;;;;;;5070693;28;20025;-50
2024/01/27 04:45:34;;;;;;;10.00;2.67;;;10.00;99.90;;;;;;5088763;28;20029;-49
2024/01/27 04:48:00;;;;;;;5.90;2.60;;;10.00;99.90;;;;;;5054057;28;20024;-49
2024/01/27 04:50:26;;;;;;;6.90;2.10;;;10.00;99.90;;;;;;5088509;28;20099;-49
2024/01/27 04:52:52;;;;;;;7.78;2.45;;;10.00;99.90;;;;;;5088496;28;20021;-49
2024/01/27 04:55:18;;;;;;;5.47;2.13;;;10.00;99.90;;;;;;5088548;28;20032;-50
2024/01/27 04:57:43;;;;;;;6.30;2.45;;;10.00;99.90;;;;;;5088642;28;20468;-49
2024/01/27 05:00:12;;;;;;;9.13;3.15;;;10.00;99.90;;;;;;5053713;28;20036;-50
2024/01/27 05:02:40;;;;;;;10.27;2.40;;;9.90;99.90;;;;;;5070929;28;20024;-49
2024/01/27 05:05:06;;;;;;;6.38;2.13;;;9.90;99.90;;;;;;5053698;28;20024;-50
2024/01/27 05:07:32;;;;;;;5.82;2.40;;;9.90;99.90;;;;;;5070719;28;20028;-49
2024/01/27 05:09:58;;;;;;;6.63;2.55;;;9.90;99.90;;;;;;5070407;28;20024;-49
2024/01/27 05:12:23;;;;;;;8.20;2.45;;;9.80;99.90;;;;;;5069416;28;20085;-50
2024/01/27 05:14:49;;;;;;;7.85;2.63;;;9.80;99.90;;;;;;5070291;28;20028;-49
2024/01/27 05:17:14;;;;;;;5.82;2.22;;;9.90;99.90;;;;;;5070180;28;20041;-50
2024/01/27 05:19:40;;;;;;;5.82;1.95;;;9.80;99.90;;;;;;5088119;28;20134;-50
2024/01/27 05:22:05;;;;;;;6.28;2.28;;;9.80;99.90;;;;;;5070133;28;20036;-49
2024/01/27 05:24:31;;;;;;;6.80;1.95;;;9.80;99.90;;;;;;5087810;28;20032;-50
2024/01/27 05:26:57;;;;;;;5.55;2.55;;;9.80;99.90;;;;;;5070834;28;20484;-49
2024/01/27 05:29:22;;;;;;;4.80;2.28;;;9.80;99.90;;;;;;5087936;28;20029;-50
2024/01/27 05:31:48;;;;;;;5.78;2.08;;;9.70;99.90;;;;;;5070063;28;20021;-49
2024/01/27 05:34:14;;;;;;;5.28;2.42;;;9.70;99.90;;;;;;5087850;28;20024;-49
2024/01/27 05:36:40;;;;;;;7.03;2.33;;;9.70;99.90;;;;;;5069744;28;20082;-49
2024/01/27 05:39:06;;;;;;;5.72;2.00;;;9.70;99.90;;;;;;5087752;28;20032;-50
2024/01/27 05:41:32;;;;;;;7.13;2.28;;;9.70;99.90;;;;;;5087634;28;20032;-50
2024/01/27 05:43:57;;;;;;;5.75;2.10;;;9.70;99.90;;;;;;5069656;28;20020;-50
2024/01/27 05:46:24;;;;;;;5.43;1.95;;;9.70;99.90;;;;;;5069521;28;20028;-49
2024/01/27 05:48:50;;;;;;;3.75;1.88;;;9.60;99.90;;;;;;5069734;28;20048;-49
2024/01/27 05:51:16;;;;;;;8.65;2.05;;;9.60;99.90;;;;;;5087453;28;20092;-50
2024/01/27 05:53:42;;;;;;;6.78;2.05;;;9.60;99.90;;;;;;5069550;28;20031;-49
2024/01/27 05:56:07;;;;;;;4.47;1.60;;;9.60;99.90;;;;;;5069468;28;20112;-49
2024/01/27 05:58:33;;;;;;;5.60;2.05;;;9.60;99.90;;;;;;5069403;28;20025;-49
2024/01/27 06:00:58;;;;;;;7.53;2.15;;;9.50;99.90;;;;;;5069156;28;20032;-50
2024/01/27 06:03:24;;;;;;;7.20;1.90;;;9.50;99.90;;;;;;5069248;28;20035;-49
2024/01/27 06:05:50;;;;;;;8.30;2.20;;;9.60;99.90;;;;;;5069122;28;20056;-49
2024/01/27 06:08:17;;;;;;;6.75;2.25;;;9.50;99.90;;;;;;5087001;28;20016;-49
2024/01/27 06:10:43;;;;;;;5.10;2.42;;;9.50;99.90;;;;;;5086819;28;20029;-50
2024/01/27 06:13:08;;;;;;;6.10;1.95;;;9.50;99.90;;;;;;5086922;28;20030;-49
2024/01/27 06:15:34;;;;;;;7.63;2.00;;;9.50;99.90;;;;;;5068849;28;20037;-50
2024/01/27 06:17:59;;;;;;;6.75;2.28;;;9.50;99.90;;;;;;5069053;28;20043;-50
2024/01/27 06:20:25;;;;;;;5.50;2.08;;;9.50;99.90;;;;;;5052019;28;20056;-49
2024/01/27 06:22:52;;;;;;;10.50;2.80;;;9.40;99.90;;;;;;5086717;28;20066;-49
2024/01/27 06:25:18;;;;;;;4.43;1.85;;;9.40;99.90;;;;;;5086755;28;20047;-49
2024/01/27 06:27:43;;;;;;;5.40;2.08;;;9.40;99.90;;;;;;5068702;28;20480;-50
2024/01/27 06:30:10;;;;;;;7.30;2.95;;;9.40;99.90;;;;;;5068643;28;20016;-50
2024/01/27 06:32:36;;;;;;;5.53;2.50;;;9.40;99.90;;;;;;5068835;28;20062;-49
2024/01/27 06:35:02;;;;;;;6.78;2.45;;;9.40;99.90;;;;;;5068593;28;20080;-49
2024/01/27 06:37:28;;;;;;;11.05;3.05;;;9.40;99.90;;;;;;5051969;28;20032;-50
2024/01/27 06:39:53;;;;;;;10.10;3.85;;;9.40;99.90;;;;;;5086575;28;20048;-47
2024/01/27 06:42:19;;;;;;;9.75;3.17;;;9.40;99.90;;;;;;5068375;28;20040;-49
2024/01/27 06:44:45;;;;;;;8.60;3.13;;;9.40;99.90;;;;;;5086447;28;20021;-49
2024/01/27 06:47:10;;;;;;;14.88;3.70;;;9.30;99.90;;;;;;5086594;28;20028;-50
2024/01/27 06:49:36;;;;;;;22.05;4.50;;;9.30;99.90;;;;;;5086316;28;20028;-49
2024/01/27 06:52:02;;;;;;;48.47;6.30;;;9.30;99.90;;;;;;5068530;28;20029;-49
2024/01/27 06:54:28;;;;;;;36.30;6.65;;;9.30;99.90;;;;;;5068263;28;20051;-49
2024/01/27 06:56:53;;;;;;;26.95;5.15;;;9.30;99.90;;;;;;5068353;28;20032;-49
2024/01/27 06:59:19;;;;;;;26.50;5.32;;;9.30;99.90;;;;;;5068435;28;20024;-50
2024/01/27 07:01:48;;;;;;;37.22;6.97;;;9.30;99.90;;;;;;5086345;28;20043;-49
2024/01/27 07:04:17;;;;;;;42.25;6.97;;;9.30;99.90;;;;;;5086157;28;20024;-49
2024/01/27 07:06:43;;;;;;;37.60;6.65;;;9.30;99.90;;;;;;5068704;28;20047;-50
2024/01/27 07:09:11;;;;;;;48.63;6.93;;;9.20;99.90;;;;;;5068568;28;20085;-50
2024/01/27 07:11:37;;;;;;;39.33;7.22;;;9.30;99.90;;;;;;5068499;28;20029;-49
2024/01/27 07:14:06;;;;;;;48.08;7.28;;;9.20;99.90;;;;;;5085868;28;20025;-49
2024/01/27 07:16:33;;;;;;;45.85;7.10;;;9.20;99.90;;;;;;5086029;28;20056;-49
2024/01/27 07:18:59;;;;;;;42.53;6.82;;;9.20;99.90;;;;;;5068445;28;20032;-49
2024/01/27 07:21:26;;;;;;;45.10;7.15;;;9.20;99.90;;;;;;5067907;28;20115;-49
2024/01/27 07:23:52;;;;;;;41.03;6.38;;;9.20;99.90;;;;;;5068306;28;20107;-49
2024/01/27 07:26:18;;;;;;;46.65;7.07;;;9.20;99.90;;;;;;5051503;28;20024;-50
2024/01/27 07:28:44;;;;;;;40.75;7.28;;;9.20;99.90;;;;;;5085898;28;20020;-49
2024/01/27 07:31:10;;;;;;;39.85;7.18;;;9.20;99.90;;;;;;5085963;28;20032;-49
2024/01/27 07:33:37;;;;;;;34.25;7.03;;;9.20;99.90;;;;;;5068248;28;20070;-49
2024/01/27 07:36:03;;;;;;;64.90;8.45;;;9.20;99.90;;;;;;5089013;28;20515;-49
2024/01/27 07:38:28;;;;;;;55.78;9.57;;;9.10;99.90;;;;;;5089731;28;20037;-49
2024/01/27 07:40:54;;;;;;;73.88;8.23;;;9.10;99.90;;;;;;5089680;28;20036;-50
2024/01/27 07:43:20;;;;;;;64.45;10.65;;;9.10;99.90;;;;;;5071861;28;20054;-49
2024/01/27 07:45:46;;;;;;;39.55;7.63;;;9.10;99.90;;;;;;5089641;28;20032;-49
2024/01/27 07:48:12;;;;;;;63.42;10.20;;;9.10;99.90;;;;;;5071944;28;20073;-49
2024/01/27 07:50:37;;;;;;;33.90;6.25;;;9.10;99.90;;;;;;5071590;28;20044;-49
2024/01/27 07:53:03;;;;;;;52.50;7.57;;;9.10;99.90;;;;;;5071491;28;20051;-50
2024/01/27 07:55:29;;;;;;;36.85;7.80;;;9.10;99.90;;;;;;5071697;28;20119;-49
2024/01/27 07:57:54;;;;;;;50.92;8.10;;;9.10;99.90;;;;;;5054690;28;20034;-49
2024/01/27 08:00:20;;;;;;;51.05;8.50;;;9.10;99.90;;;;;;5054592;28;20044;-49
2024/01/27 08:02:45;;;;;;;41.17;7.88;;;9.10;99.90;;;;;;5071351;28;20040;-49
2024/01/27 08:05:11;;;;;;;43.85;7.70;;;9.10;99.90;;;;;;5071267;28;20059;-50
2024/01/27 08:07:37;;;;;;;37.58;7.88;;;9.10;99.90;;;;;;5071345;28;20025;-49
2024/01/27 08:10:04;;;;;;;36.05;8.07;;;9.00;99.90;;;;;;5089078;28;20025;-50
2024/01/27 08:12:29;;;;;;;38.42;8.00;;;9.10;99.90;;;;;;5071091;28;20036;-49
2024/01/27 08:14:55;;;;;;;43.70;7.60;;;9.10;99.90;;;;;;5089184;28;20028;-49
2024/01/27 08:17:21;;;;;;;40.47;7.45;;;9.00;99.90;;;;;;5089289;28;20039;-50
2024/01/27 08:19:46;;;;;;;56.72;8.75;;;9.00;99.90;;;;;;5089321;28;20025;-49
2024/01/27 08:22:12;;;;;;;31.80;7.55;;;9.00;99.90;;;;;;5089211;28;20461;-49
2024/01/27 08:24:37;;;;;;;40.97;8.00;;;9.00;99.90;;;;;;5089051;28;20060;-49
2024/01/27 08:27:03;;;;;;;41.05;7.72;;;9.00;99.90;;;;;;5089000;28;20036;-49
2024/01/27 08:29:29;;;;;;;44.63;7.80;;;9.00;99.90;;;;;;5071154;28;20098;-50
2024/01/27 08:31:54;;;;;;;35.65;7.47;;;9.00;99.90;;;;;;5070807;28;20111;-49
2024/01/27 08:34:20;;;;;;;31.52;6.53;;;9.00;99.90;;;;;;5070807;28;20024;-49
2024/01/27 08:36:46;;;;;;;34.60;7.47;;;9.00;99.90;;;;;;5053951;28;20033;-50
2024/01/27 08:39:12;;;;;;;37.45;8.02;;;9.00;99.90;;;;;;5071045;28;20034;-49
2024/01/27 08:41:37;;;;;;;29.70;7.55;;;9.00;99.90;;;;;;5070961;28;20041;-49
2024/01/27 08:44:03;;;;;;;33.25;7.50;;;9.00;99.90;;;;;;5088837;28;20024;-49
2024/01/27 08:46:29;;;;;;;36.28;7.18;;;9.00;99.90;;;;;;5087446;28;20024;-50
2024/01/27 08:48:54;;;;;;;31.50;6.35;;;8.90;99.90;;;;;;5075345;28;20043;-50
2024/01/27 08:51:20;;;;;;;36.17;7.13;;;8.90;99.90;;;;;;5088452;28;20071;-50
2024/01/27 08:53:48;;;;;;;40.70;6.72;;;8.90;99.90;;;;;;5087370;28;20029;-50
2024/01/27 08:56:15;;;;;;;34.88;6.75;;;8.90;99.90;;;;;;5087327;28;20040;-49
2024/01/27 08:58:41;;;;;;;33.05;6.10;;;8.90;99.90;;;;;;5087213;28;20025;-49
2024/01/27 09:01:09;;;;;;;34.05;7.20;;;8.90;99.90;;;;;;5087167;28;20473;-49
2024/01/27 09:03:35;;;;;;;27.00;6.43;;;8.90;99.90;;;;;;5088161;28;20028;-49
2024/01/27 09:06:00;;;;;;;25.88;6.97;;;8.90;99.90;;;;;;5070202;28;20060;-49
2024/01/27 09:08:26;;;;;;;25.20;6.53;;;8.90;99.90;;;;;;5088135;28;20032;-49
2024/01/27 09:10:51;;;;;;;25.88;6.38;;;8.90;99.90;;;;;;5074567;28;20434;-50
2024/01/27 09:13:17;;;;;;;28.38;6.00;;;8.80;99.90;;;;;;5087684;28;20024;-50
2024/01/27 09:15:42;;;;;;;34.40;6.20;;;8.90;99.90;;;;;;5084292;28;20093;-49
2024/01/27 09:18:08;;;;;;;24.02;6.20;;;8.90;99.90;;;;;;5054050;28;20052;-49
2024/01/27 09:20:34;;;;;;;29.02;6.38;;;8.80;99.90;;;;;;5069706;28;20036;-49
2024/01/27 09:22:59;;;;;;;21.50;5.65;;;8.80;99.90;;;;;;5078435;28;20032;-49
2024/01/27 09:25:26;;;;;;;18.80;5.88;;;8.90;99.90;;;;;;5069597;28;20048;-50
2024/01/27 09:27:53;;;;;;;23.35;5.10;;;8.90;99.90;;;;;;5084429;28;20084;-49
2024/01/27 09:30:18;;;;;;;21.48;5.43;;;8.90;99.90;;;;;;5087090;28;20027;-49
2024/01/27 09:32:44;;;;;;;23.60;5.78;;;8.90;99.90;;;;;;5079164;28;20029;-50
2024/01/27 09:35:10;;;;;;;25.52;5.22;;;8.90;99.90;;;;;;5087753;28;20028;-49
2024/01/27 09:37:35;;;;;;;29.33;6.20;;;8.90;99.90;;;;;;5085792;28;20044;-49
2024/01/27 09:40:02;;;;;;;35.70;6.22;;;8.90;99.90;;;;;;5086839;28;20046;-49
2024/01/27 09:42:28;;;;;;;35.40;7.15;;;8.90;99.90;;;;;;5080816;28;20055;-49
2024/01/27 09:44:54;;;;;;;71.28;9.27;;;9.00;99.90;;;;;;5073820;28;20025;-49
2024/01/27 09:47:21;;;;;;;69.25;11.60;;;9.00;99.90;;;;;;5077231;28;20025;-50
2024/01/27 09:49:46;;;;;;;75.45;12.90;;;9.00;99.90;;;;;;5052723;28;20066;-49
2024/01/27 09:52:12;;;;;;;89.78;11.63;;;9.00;99.90;;;;;;5061590;28;20032;-49
2024/01/27 09:54:38;;;;;;;98.45;12.25;;;9.10;99.90;;;;;;5067762;28;20119;-50
2024/01/27 09:57:04;;;;;;;103.03;11.50;;;9.10;99.90;;;;;;5050984;28;20059;-50
2024/01/27 09:59:29;;;;;;;145.00;15.73;;;9.10;99.90;;;;;;5085124;28;20033;-50
2024/01/27 10:01:56;;;;;;;149.13;15.10;;;9.20;99.90;;;;;;5066396;28;20504;-49
2024/01/27 10:04:23;;;;;;;155.20;16.40;;;9.20;99.90;;;;;;5051611;28;20047;-49
2024/01/27 10:06:50;;;;;;;146.00;16.55;;;9.20;99.90;;;;;;5056846;28;20020;-50
2024/01/27 10:09:16;;;;;;;142.50;15.90;;;9.20;99.90;;;;;;5051630;28;20439;-49
2024/01/27 10:11:45;;;;;;;206.00;21.02;;;9.30;99.90;;;;;;5085407;28;20020;-49
2024/01/27 10:14:10;;;;;;;153.85;18.33;;;9.30;99.90;;;;;;5051703;28;20035;-49
2024/01/27 10:16:46;;;;;;;178.95;19.83;;;9.30;99.90;;;;;;5085070;28;20040;-49
2024/01/27 10:19:17;;;;;;;167.55;19.83;;;9.30;99.90;;;;;;5057677;28;20024;-49
2024/01/27 10:21:43;;;;;;;193.20;20.63;;;9.40;99.90;;;;;;5077371;28;20168;-49
2024/01/27 10:24:09;;;;;;;193.02;21.45;;;9.50;99.90;;;;;;5085203;28;20029;-49
2024/01/27 10:26:35;;;;;;;218.15;23.80;;;9.50;99.90;;;;;;5060520;28;20037;-49
2024/01/27 10:29:01;;;;;;;220.82;24.50;;;9.50;99.90;;;;;;5063782;28;20020;-49
2024/01/27 10:31:30;;;;;;;231.57;24.65;;;9.50;99.90;;;;;;5075524;28;20043;-49
2024/01/27 10:33:56;;;;;;;238.73;25.15;;;9.60;99.90;;;;;;5086269;28;20086;-50
2024/01/27 10:36:22;;;;;;;248.98;26.98;;;9.60;99.90;;;;;;5085001;28;20041;-50
2024/01/27 10:38:48;;;;;;;241.15;27.27;;;9.60;99.90;;;;;;5085539;28;20024;-49
2024/01/27 10:41:24;;;;;;;244.68;27.70;;;9.70;99.90;;;;;;5070103;28;20032;-49
2024/01/27 10:43:53;;;;;;;277.80;29.23;;;9.70;99.90;;;;;;5070720;28;20029;-50
2024/01/27 10:46:22;;;;;;;231.82;26.13;;;9.70;99.90;;;;;;5071237;28;20028;-50
2024/01/27 10:48:52;;;;;;;231.52;25.23;;;9.70;99.90;;;;;;5067977;28;20024;-50
2024/01/27 10:51:22;;;;;;;248.05;28.17;;;9.70;99.90;;;;;;5067635;28;20029;-50
2024/01/27 10:53:49;;;;;;;286.52;30.48;;;9.70;99.90;;;;;;5073523;28;20028;-50
2024/01/27 10:56:14;;;;;;;293.75;29.85;;;9.80;99.90;;;;;;5067561;28;20024;-50
2024/01/27 10:58:42;;;;;;;221.98;25.90;;;9.80;99.90;;;;;;5056097;28;20028;-50
2024/01/27 11:01:10;;;;;;;259.90;28.70;;;9.80;99.90;;;;;;5071149;28;20027;-50
2024/01/27 11:03:37;;;;;;;242.75;26.58;;;9.80;99.90;;;;;;5067883;28;20063;-49
2024/01/27 11:06:04;;;;;;;256.35;31.13;;;9.90;99.90;;;;;;5059970;28;20086;-49
2024/01/27 11:08:29;;;;;;;241.75;27.25;;;9.90;99.90;;;;;;5073038;28;20024;-50
2024/01/27 11:10:55;;;;;;;245.07;28.60;;;9.90;99.90;;;;;;5068327;28;20028;-49
2024/01/27 11:13:21;;;;;;;264.95;29.60;;;9.90;99.90;;;;;;5065525;28;20065;-50
2024/01/27 11:15:53;;;;;;;289.67;30.05;;;9.90;99.90;;;;;;5069031;28;20491;-49
2024/01/27 11:18:19;;;;;;;285.55;29.65;;;9.90;99.90;;;;;;5084997;28;20473;-49
2024/01/27 11:20:45;;;;;;;235.30;29.95;;;9.90;99.90;;;;;;5084136;28;20066;-50
2024/01/27 11:23:12;;;;;;;292.88;32.72;;;10.00;99.90;;;;;;5066926;28;20021;-48
2024/01/27 11:25:37;;;;;;;297.05;32.10;;;10.00;99.90;;;;;;5086337;28;20021;-50
2024/01/27 11:28:14;;;;;;;250.88;30.50;;;10.00;99.90;;;;;;5081260;28;20017;-49
2024/01/27 11:30:40;;;;;;;250.32;28.60;;;10.00;99.90;;;;;;5082507;28;20025;-49
2024/01/27 11:33:05;;;;;;;280.50;29.35;;;10.00;99.90;;;;;;5065834;28;20059;-50
2024/01/27 11:35:31;;;;;;;253.60;29.40;;;10.00;99.90;;;;;;5050874;28;20063;-49
2024/01/27 11:37:56;;;;;;;267.80;28.70;;;10.00;99.90;;;;;;5068221;28;20503;-49
2024/01/27 11:40:22;;;;;;;280.08;31.13;;;10.00;99.90;;;;;;5070238;28;20100;-49
2024/01/27 11:42:55;;;;;;;310.13;30.77;;;10.00;99.90;;;;;;5105228;28;20443;-50
2024/01/27 11:45:21;;;;;;;281.98;32.33;;;10.00;99.90;;;;;;5074134;28;20094;-49
2024/01/27 11:47:46;;;;;;;277.45;30.05;;;10.00;99.90;;;;;;5064456;28;20028;-50
2024/01/27 11:50:12;;;;;;;245.45;27.92;;;10.10;99.90;;;;;;5065101;28;20057;-50
2024/01/27 11:52:38;;;;;;;251.40;30.45;;;10.00;99.90;;;;;;5049712;28;20099;-49
2024/01/27 11:55:04;;;;;;;288.35;32.28;;;10.10;99.90;;;;;;5075118;28;20012;-50
2024/01/27 11:57:29;;;;;;;271.48;30.20;;;10.10;99.90;;;;;;5068956;28;20032;-50
2024/01/27 11:59:55;;;;;;;299.15;32.33;;;10.10;99.90;;;;;;5083064;28;20047;-49
2024/01/27 12:02:20;;;;;;;265.55;31.73;;;10.10;99.90;;;;;;5049104;28;20031;-49
2024/01/27 12:04:47;;;;;;;256.63;28.25;;;10.10;99.90;;;;;;5084235;28;20045;-50
2024/01/27 12:07:13;;;;;;;232.07;28.52;;;10.10;99.90;;;;;;5074685;28;20035;-49
2024/01/27 12:09:38;;;;;;;343.77;34.40;;;10.10;99.90;;;;;;5050383;28;20024;-50
2024/01/27 12:12:05;;;;;;;405.20;39.03;;;10.10;99.90;;;;;;5049533;28;20100;-50
2024/01/27 12:14:49;;;;;;;304.35;34.05;;;10.10;99.90;;;;;;5066800;28;20028;-50
2024/01/27 12:17:15;;;;;;;306.42;33.28;;;10.20;99.90;;;;;;5034450;28;20107;-49
2024/01/27 12:19:46;;;;;;;276.33;33.47;;;10.10;99.90;;;;;;5066745;28;20483;-49
2024/01/27 12:22:26;;;;;;;356.48;37.10;;;10.20;99.90;;;;;;5087915;28;20479;-50
2024/01/27 12:24:52;;;;;;;290.48;32.28;;;10.20;99.90;;;;;;5069782;28;20037;-50
2024/01/27 12:27:17;;;;;;;261.42;29.67;;;10.20;99.90;;;;;;5070100;28;20024;-49
2024/01/27 12:29:43;;;;;;;298.40;35.20;;;10.20;99.90;;;;;;5053488;28;20078;-49
2024/01/27 12:32:09;;;;;;;274.20;30.20;;;10.10;99.90;;;;;;5086402;28;20024;-49
2024/01/27 12:34:42;;;;;;;283.15;34.22;;;10.10;99.90;;;;;;5070326;28;20076;-48